Greenhill, United Kingdom

9:31 PM GMT on January 25, 2015 (GMT +0000)
East Renfrewshire | Change Station
CLOSE
Current Station
Personal Weather Station
Location: Neilston, GLASGOW
Elevation: 452 ft
Nearby Weather Stations

Elev 452 ft 55.78 °N, 4.42 °W | Updated 3 seconds ago

Mostly Cloudy
Mostly Cloudy
44.7 °F
Feels Like 41 °F
N
5.8
Wind Variable Wind from SSW
Gusts 5.8 mph

Today
High -- | Low -- °F
--% Chance of Precip.
Yesterday
High -- | Low -- °F
Precip. -- in
8:24 AM 4:36 PM
Waxing Crescent, 36% visible
Pressure 29.98 in
Visibility 6.2 miles
Clouds Few 1500 ft
Scattered Clouds 2300 ft
Mostly Cloudy 3700 ft
Windchill 41 °F
Dew Point 44 °F
Humidity 96%
Rainfall 29.88 in
Snow Depth Not available.
UV 0 out of 12
Pollen Not available.
Air Quality Not available.
Flu Activity Not available.
METAR EGPF 252120Z 25010KT 9999 VCSH FEW015 SCT023 BKN037 08/07 Q1015

More Conditions Fewer Conditions

Pressure 29.98 in
Visibility 6.2 miles
Clouds Few 1500 ft
Scattered Clouds 2300 ft
Mostly Cloudy 3700 ft
Windchill 41 °F
Dew Point 44 °F
Humidity 96%
Rainfall 29.88 in
Snow Depth Not available.
UV 0 out of 12
Pollen Not available.
Air Quality Not available.
Flu Activity Not available.
METAR EGPF 252120Z 25010KT 9999 VCSH FEW015 SCT023 BKN037 08/07 Q1015

More Conditions Fewer Conditions

10-Day Weather Forecast

Almanac

Astronomy

Jan. 25, 2015 Rise Set
Actual Time
Civil Twilight
Nautical Twilight
Astronomical Twilight
Moon
Length of Visible Light
Length of Day
Tomorrow will be .
, % of the Moon is Illuminated

Today's Extremes

Country Highs Country Lows

Community

WunderPhotos

Upload Photos

1,790,058 photos uploaded!

WunderBlogs® & News

Nearby

Air Quality

  Air Quality AQ Index Pollutant
Not available.

Snow Depth

Station Depth Elevation

Earthquake Activity

City Distance Mag. Time & Date
Minimum magnitude displayed is 2.5.

Coastal Water Temperatures

Place Temperature

Nearby Weather Stations